createdAt,value
2018-10-16T00:03:16.155Z,11.27
2018-10-16T00:07:24.531Z,11.30
2018-10-16T00:11:32.832Z,11.30
2018-10-16T00:15:41.329Z,11.70
2018-10-16T00:19:49.980Z,12.77
2018-10-16T00:23:58.282Z,11.63
2018-10-16T00:28:07.014Z,12.10
2018-10-16T00:32:15.352Z,12.33
2018-10-16T00:36:24.009Z,11.70
2018-10-16T00:40:32.334Z,11.40
2018-10-16T00:44:40.825Z,12.03
2018-10-16T00:48:49.327Z,11.43
2018-10-16T00:52:57.814Z,11.47
2018-10-16T00:57:06.150Z,11.47
2018-10-16T01:01:16.225Z,11.50
2018-10-16T01:05:24.726Z,11.20
2018-10-16T01:09:33.024Z,10.53
2018-10-16T01:13:41.472Z,10.27
2018-10-16T01:17:49.955Z,12.83
2018-10-16T01:21:58.454Z,10.67
2018-10-16T01:26:07.048Z,11.40
2018-10-16T01:30:15.332Z,10.10
2018-10-16T01:34:23.921Z,11.77
2018-10-16T01:38:32.213Z,12.10
2018-10-16T01:42:40.608Z,11.90
2018-10-16T01:46:48.769Z,11.67
2018-10-16T01:50:57.275Z,10.27
2018-10-16T01:55:05.594Z,11.87
2018-10-16T01:59:13.909Z,12.30
2018-10-16T02:03:22.508Z,13.83
2018-10-16T02:07:30.797Z,11.20
2018-10-16T02:11:39.425Z,11.37
2018-10-16T02:15:47.760Z,11.97
2018-10-16T02:19:55.979Z,12.00
2018-10-16T02:24:04.275Z,10.93
2018-10-16T02:28:12.619Z,11.67
2018-10-16T02:32:21.380Z,12.50
2018-10-16T02:36:29.696Z,11.43
2018-10-16T02:40:38.038Z,13.20
2018-10-16T02:44:46.327Z,11.00
2018-10-16T02:48:54.828Z,12.00
2018-10-16T02:53:03.108Z,12.33
2018-10-16T02:57:11.967Z,11.03
2018-10-16T03:01:20.645Z,11.40
2018-10-16T03:05:29.037Z,11.60
2018-10-16T03:09:37.398Z,12.67
2018-10-16T03:13:45.719Z,12.17
2018-10-16T03:17:54.278Z,10.87
2018-10-16T03:22:02.616Z,12.53
2018-10-16T03:26:11.143Z,12.90
2018-10-16T03:30:19.404Z,11.83
2018-10-16T03:34:28.165Z,13.87
2018-10-16T03:38:37.340Z,13.50
2018-10-16T03:42:45.785Z,12.20
2018-10-16T03:46:54.068Z,14.57
2018-10-16T03:51:02.495Z,13.17
2018-10-16T03:55:11.133Z,12.83
2018-10-16T03:59:19.407Z,12.27
2018-10-16T04:03:27.753Z,14.30
2018-10-16T04:07:36.689Z,12.97
2018-10-16T04:11:45.012Z,12.77
2018-10-16T04:15:53.288Z,12.40
2018-10-16T04:20:01.580Z,13.83
2018-10-16T04:24:10.150Z,12.60
2018-10-16T04:28:18.464Z,14.73
2018-10-16T04:32:26.892Z,13.07
2018-10-16T04:36:35.518Z,13.43
2018-10-16T04:40:44.016Z,14.07
2018-10-16T04:44:52.346Z,13.80
2018-10-16T04:49:00.599Z,13.40
2018-10-16T04:53:09.360Z,13.10
2018-10-16T04:57:17.646Z,14.13
2018-10-16T05:01:26.195Z,14.13
2018-10-16T05:05:34.637Z,13.47
2018-10-16T05:09:43.109Z,12.93
2018-10-16T05:13:51.381Z,13.53
2018-10-16T05:17:59.727Z,13.67
2018-10-16T05:22:08.633Z,13.00
2018-10-16T05:26:16.926Z,12.90
2018-10-16T05:30:25.624Z,13.20
2018-10-16T05:34:34.159Z,14.63
2018-10-16T05:38:43.230Z,14.87
2018-10-16T05:42:51.464Z,14.00
2018-10-16T05:46:59.866Z,13.20
2018-10-16T05:51:08.489Z,13.20
2018-10-16T05:55:16.744Z,15.70
2018-10-16T05:59:25.094Z,13.63
2018-10-16T06:03:33.431Z,15.53
2018-10-16T06:07:42.920Z,13.70
2018-10-16T06:11:51.243Z,14.50
2018-10-16T06:15:59.558Z,14.78
2018-10-16T06:20:10.647Z,14.63
2018-10-16T06:24:19.040Z,14.40
2018-10-16T06:28:28.264Z,14.83
2018-10-16T06:32:37.205Z,14.67
2018-10-16T06:36:45.517Z,14.33
2018-10-16T06:40:53.963Z,15.53
2018-10-16T06:45:02.039Z,15.00
2018-10-16T06:49:10.646Z,15.80
2018-10-16T06:53:18.944Z,15.00
2018-10-16T06:57:27.453Z,16.10
2018-10-16T07:01:36.940Z,14.47
2018-10-16T07:05:45.245Z,15.73
2018-10-16T07:09:53.552Z,16.45
2018-10-16T07:14:02.548Z,17.40
2018-10-16T07:18:11.109Z,16.57
2018-10-16T07:22:19.376Z,16.53
2018-10-16T07:26:27.777Z,16.93
2018-10-16T07:30:36.488Z,17.03
2018-10-16T07:34:44.826Z,17.10
2018-10-16T07:38:53.181Z,17.53
2018-10-16T07:43:01.466Z,18.00
2018-10-16T07:47:10.090Z,19.30
2018-10-16T07:51:18.408Z,18.20
2018-10-16T07:55:27.085Z,18.80
2018-10-16T07:59:35.802Z,18.90
2018-10-16T08:03:44.143Z,18.40
2018-10-16T08:07:52.463Z,19.33
2018-10-16T08:12:00.791Z,18.63
2018-10-16T08:16:09.977Z,20.17
2018-10-16T08:20:18.433Z,19.43
2018-10-16T08:24:26.937Z,18.73
2018-10-16T08:28:36.012Z,18.30
2018-10-16T08:32:44.405Z,17.17
2018-10-16T08:36:52.766Z,18.80
2018-10-16T08:41:01.064Z,19.43
2018-10-16T08:45:21.236Z,18.27
2018-10-16T08:49:40.713Z,19.77
2018-10-16T08:53:48.989Z,16.63
2018-10-16T08:57:57.444Z,16.47
2018-10-16T09:02:06.832Z,18.00
2018-10-16T09:06:15.228Z,16.93
2018-10-16T09:10:23.580Z,16.40
2018-10-16T09:14:31.964Z,13.93
2018-10-16T09:18:40.940Z,14.30
2018-10-16T09:22:49.246Z,16.17
2018-10-16T09:26:57.753Z,14.13
2018-10-16T09:31:09.929Z,13.60
2018-10-16T09:35:18.425Z,13.80
2018-10-16T09:39:27.007Z,13.20
2018-10-16T09:43:35.400Z,11.50
2018-10-16T09:47:44.400Z,11.95
2018-10-16T09:51:52.824Z,11.83
2018-10-16T09:56:01.165Z,11.60
2018-10-16T10:00:16.074Z,12.20
2018-10-16T10:04:24.374Z,11.70
2018-10-16T10:08:32.640Z,11.47
2018-10-16T10:12:41.228Z,11.40
2018-10-16T10:16:49.505Z,11.67
2018-10-16T10:20:58.060Z,12.07
2018-10-16T10:25:06.853Z,12.13
2018-10-16T10:29:15.179Z,11.70
2018-10-16T10:33:23.448Z,10.80
2018-10-16T10:37:31.865Z,12.37
2018-10-16T10:41:40.861Z,10.03
2018-10-16T10:45:49.140Z,10.57
2018-10-16T10:49:57.756Z,10.90
2018-10-16T10:54:06.460Z,11.57
2018-10-16T10:58:14.988Z,11.00
2018-10-16T11:02:23.307Z,10.90
2018-10-16T11:06:31.692Z,10.50
2018-10-16T11:10:40.435Z,11.10
2018-10-16T11:14:49.246Z,11.30
2018-10-16T11:18:57.709Z,10.40
2018-10-16T11:23:06.436Z,9.50
2018-10-16T11:27:14.972Z,11.33
2018-10-16T11:31:23.169Z,10.10
2018-10-16T11:35:31.524Z,10.90
2018-10-16T11:39:40.129Z,9.80
2018-10-16T11:43:48.424Z,9.53
2018-10-16T11:47:57.069Z,9.73
2018-10-16T11:52:05.706Z,10.90
2018-10-16T11:56:14.223Z,10.63
2018-10-16T12:00:24.730Z,9.30
2018-10-16T12:04:33.144Z,9.57
2018-10-16T12:08:41.735Z,10.47
2018-10-16T12:12:50.139Z,9.80
2018-10-16T12:17:35.978Z,10.30
2018-10-16T12:21:44.390Z,9.77
2018-10-16T12:25:52.684Z,9.93
2018-10-16T12:30:01.037Z,8.80
2018-10-16T12:34:09.633Z,9.77
2018-10-16T12:38:17.914Z,9.50
2018-10-16T12:42:26.232Z,9.18
2018-10-16T12:46:34.500Z,9.20
2018-10-16T12:50:42.944Z,9.03
2018-10-16T12:54:51.218Z,8.63
2018-10-16T12:58:59.787Z,8.70
2018-10-16T13:03:08.695Z,9.33
2018-10-16T13:07:23.315Z,8.97
2018-10-16T13:11:31.624Z,8.70
2018-10-16T13:15:40.452Z,9.87
2018-10-16T13:19:48.784Z,9.47
2018-10-16T13:23:57.330Z,9.40
2018-10-16T13:28:05.751Z,9.07
2018-10-16T13:32:14.219Z,8.40
2018-10-16T13:36:22.450Z,9.10
2018-10-16T13:40:30.801Z,9.10
2018-10-16T13:44:39.427Z,9.87
2018-10-16T13:48:47.748Z,10.00
2018-10-16T13:52:56.082Z,8.80
2018-10-16T13:57:04.348Z,9.87
2018-10-16T14:01:12.836Z,9.83
2018-10-16T14:05:21.134Z,9.33
2018-10-16T14:09:29.656Z,9.80
2018-10-16T14:13:38.354Z,10.63
2018-10-16T14:17:46.704Z,10.17
2018-10-16T14:21:55.026Z,10.27
2018-10-16T14:26:03.404Z,9.43
2018-10-16T14:30:14.040Z,8.90
2018-10-16T14:34:22.405Z,9.50
2018-10-16T14:38:30.754Z,9.90
2018-10-16T14:42:39.389Z,10.13
2018-10-16T14:46:47.660Z,9.63
2018-10-16T14:50:55.960Z,9.73
2018-10-16T14:55:04.949Z,10.10
2018-10-16T14:59:13.460Z,10.07
2018-10-16T15:03:21.867Z,10.07
2018-10-16T15:07:30.273Z,9.73
2018-10-16T15:11:39.988Z,9.80
2018-10-16T15:15:48.324Z,9.97
2018-10-16T15:19:56.752Z,9.70
2018-10-16T15:24:05.324Z,10.03
2018-10-16T15:28:13.673Z,10.00
2018-10-16T15:32:21.905Z,11.53
2018-10-16T15:36:30.469Z,10.00
2018-10-16T15:40:38.826Z,10.80
2018-10-16T15:44:47.461Z,9.53
2018-10-16T15:48:56.353Z,11.60
2018-10-16T15:53:04.696Z,10.50
2018-10-16T15:57:13.044Z,10.00
2018-10-16T16:01:21.296Z,10.00
2018-10-16T16:05:29.951Z,9.80
2018-10-16T16:09:38.288Z,10.90
2018-10-16T16:13:46.721Z,11.50
2018-10-16T16:17:55.130Z,10.53
2018-10-16T16:22:03.721Z,11.77
2018-10-16T16:26:11.987Z,11.27
2018-10-16T16:30:20.376Z,11.37
2018-10-16T16:34:29.080Z,10.97
2018-10-16T16:38:37.474Z,11.83
2018-10-16T16:42:45.873Z,10.70
2018-10-16T16:46:54.300Z,10.40
2018-10-16T16:51:02.765Z,11.47
2018-10-16T16:55:12.760Z,10.77
2018-10-16T16:59:21.037Z,11.50
2018-10-16T17:03:29.853Z,11.70
2018-10-16T17:07:38.153Z,10.60
2018-10-16T17:11:46.456Z,10.60
2018-10-16T17:15:55.042Z,11.30
2018-10-16T17:20:03.478Z,12.00
2018-10-16T17:24:11.713Z,11.90
2018-10-16T17:28:19.996Z,11.43
2018-10-16T17:32:28.481Z,12.10
2018-10-16T17:36:36.804Z,12.47
2018-10-16T17:40:45.201Z,13.40
2018-10-16T17:44:54.444Z,10.73
2018-10-16T17:49:02.856Z,11.90
2018-10-16T17:53:11.133Z,12.27
2018-10-16T17:57:19.468Z,11.67
2018-10-16T18:01:28.064Z,11.33
2018-10-16T18:05:36.437Z,11.73
2018-10-16T18:09:44.800Z,13.30
2018-10-16T18:13:53.162Z,12.30
2018-10-16T18:18:01.760Z,13.60
2018-10-16T18:22:09.801Z,13.50
2018-10-16T18:26:18.288Z,13.27
2018-10-16T18:30:27.049Z,12.70
2018-10-16T18:34:35.345Z,12.23
2018-10-16T18:38:43.708Z,14.30
2018-10-16T18:42:52.006Z,12.65
2018-10-16T18:47:00.596Z,11.60
2018-10-16T18:51:09.403Z,11.60
2018-10-16T18:55:17.665Z,11.23
2018-10-16T18:59:26.152Z,12.77
2018-10-16T19:03:34.839Z,12.93
2018-10-16T19:07:43.236Z,14.00
2018-10-16T19:11:51.721Z,13.97
2018-10-16T19:16:00.173Z,12.57
2018-10-16T19:20:09.971Z,13.07
2018-10-16T19:24:18.223Z,13.10
2018-10-16T19:28:26.708Z,14.33
2018-10-16T19:32:35.148Z,15.47
2018-10-16T19:36:43.438Z,14.20
2018-10-16T19:40:51.711Z,14.50
2018-10-16T19:45:00.109Z,16.37
2018-10-16T19:49:08.429Z,16.17
2018-10-16T19:53:16.980Z,15.93
2018-10-16T19:57:25.832Z,16.40
2018-10-16T20:01:34.689Z,15.00
2018-10-16T20:05:42.964Z,15.57
2018-10-16T20:09:51.715Z,14.60
2018-10-16T20:14:00.497Z,14.70
2018-10-16T20:18:08.757Z,14.97
2018-10-16T20:22:17.201Z,14.30
2018-10-16T20:26:25.853Z,14.83
2018-10-16T20:30:34.181Z,15.65
2018-10-16T20:34:42.554Z,14.10
2018-10-16T20:38:50.856Z,15.97
2018-10-16T20:42:59.342Z,15.17
2018-10-16T20:47:07.629Z,15.20
2018-10-16T20:51:16.128Z,14.57
2018-10-16T20:55:25.162Z,16.10
2018-10-16T20:59:33.699Z,15.23
2018-10-16T21:03:42.053Z,14.53
2018-10-16T21:07:50.425Z,13.83
2018-10-16T21:11:58.932Z,15.20
2018-10-16T21:16:07.245Z,14.77
2018-10-16T21:20:15.688Z,14.27
2018-10-16T21:24:24.009Z,15.40
2018-10-16T21:28:32.497Z,13.90
2018-10-16T21:32:41.053Z,18.10
2018-10-16T21:36:49.328Z,15.57
2018-10-16T21:40:57.600Z,16.40
2018-10-16T21:45:06.512Z,14.60
2018-10-16T21:49:15.174Z,15.30
2018-10-16T21:53:23.177Z,14.13
2018-10-16T21:57:31.820Z,15.03
2018-10-16T22:01:46.229Z,14.77
2018-10-16T22:05:54.492Z,15.50
2018-10-16T22:10:03.017Z,15.60
2018-10-16T22:14:11.610Z,15.67
2018-10-16T22:18:19.893Z,16.80
2018-10-16T22:22:28.184Z,14.63
2018-10-16T22:26:36.426Z,14.63
2018-10-16T22:30:45.061Z,14.43
2018-10-16T22:34:53.379Z,13.10
2018-10-16T22:39:01.758Z,14.03
2018-10-16T22:43:10.282Z,15.23
2018-10-16T22:47:18.796Z,13.83
2018-10-16T22:51:27.097Z,15.50
2018-10-16T22:55:35.379Z,13.63
2018-10-16T22:59:44.153Z,15.00
2018-10-16T23:03:52.436Z,14.00
2018-10-16T23:08:00.804Z,15.70
2018-10-16T23:12:09.333Z,13.13
2018-10-16T23:16:17.740Z,14.40
2018-10-16T23:20:26.071Z,14.07
2018-10-16T23:24:34.335Z,13.67
2018-10-16T23:28:42.750Z,14.47
2018-10-16T23:32:51.052Z,14.00
2018-10-16T23:36:59.357Z,13.20
2018-10-16T23:41:07.663Z,15.60
2018-10-16T23:45:16.145Z,13.70
2018-10-16T23:49:24.441Z,13.37
2018-10-16T23:53:32.860Z,13.87
2018-10-16T23:57:41.821Z,14.33
